createdAt,value
2019-05-26T00:00:17.663Z,1012.14
2019-05-26T00:01:17.660Z,1012.18
2019-05-26T00:02:17.661Z,1012.16
2019-05-26T00:03:17.638Z,1012.17
2019-05-26T00:04:17.626Z,1012.22
2019-05-26T00:05:17.609Z,1012.20
2019-05-26T00:06:17.604Z,1012.21
2019-05-26T00:07:30.132Z,1012.19
2019-05-26T00:08:18.584Z,1012.17
2019-05-26T00:09:17.575Z,1012.21
2019-05-26T00:10:17.562Z,1012.13
2019-05-26T00:11:17.547Z,1012.16
2019-05-26T00:12:17.571Z,1012.18
2019-05-26T00:13:17.522Z,1012.18
2019-05-26T00:14:17.512Z,1012.11
2019-05-26T00:15:17.511Z,1012.07
2019-05-26T00:16:17.501Z,1012.08
2019-05-26T00:17:17.520Z,1012.04
2019-05-26T00:18:17.487Z,1012.04
2019-05-26T00:19:17.465Z,1012.07
2019-05-26T00:20:17.451Z,1012.07
2019-05-26T00:21:17.497Z,1012.09
2019-05-26T00:22:17.451Z,1012.05
2019-05-26T00:23:17.418Z,1012.13
2019-05-26T00:24:17.414Z,1012.08
2019-05-26T00:25:17.409Z,1012.05
2019-05-26T00:26:17.388Z,1012.07
2019-05-26T00:27:17.401Z,1012.04
2019-05-26T00:28:17.398Z,1012.09
2019-05-26T00:29:17.349Z,1012.07
2019-05-26T00:30:17.347Z,1012.02
2019-05-26T00:31:17.326Z,1012.02
2019-05-26T00:32:17.355Z,1011.96
2019-05-26T00:33:17.316Z,1011.97
2019-05-26T00:34:17.300Z,1011.96
2019-05-26T00:35:17.293Z,1011.99
2019-05-26T00:36:17.281Z,1011.95
2019-05-26T00:37:17.300Z,1011.95
2019-05-26T00:38:17.263Z,1011.94
2019-05-26T00:39:17.250Z,1011.92
2019-05-26T00:40:17.232Z,1011.94
2019-05-26T00:41:17.224Z,1011.93
2019-05-26T00:42:17.232Z,1011.92
2019-05-26T00:43:17.203Z,1011.91
2019-05-26T00:44:17.192Z,1011.92
2019-05-26T00:45:17.180Z,1011.87
2019-05-26T00:46:17.166Z,1011.85
2019-05-26T00:47:17.180Z,1011.85
2019-05-26T00:48:17.155Z,1011.90
2019-05-26T00:49:17.141Z,1011.88
2019-05-26T00:50:17.129Z,1011.86
2019-05-26T00:51:17.117Z,1011.88
2019-05-26T00:52:17.141Z,1011.90
2019-05-26T00:53:17.121Z,1011.87
2019-05-26T00:54:17.082Z,1011.84
2019-05-26T00:55:17.074Z,1011.88
2019-05-26T00:56:17.074Z,1011.80
2019-05-26T00:57:17.077Z,1011.82
2019-05-26T00:58:17.051Z,1011.82
2019-05-26T00:59:17.042Z,1011.80
2019-05-26T01:00:17.023Z,1011.84
2019-05-26T01:01:17.017Z,1011.79
2019-05-26T01:02:17.133Z,1011.79
2019-05-26T01:03:16.986Z,1011.81
2019-05-26T01:04:16.982Z,1011.80
2019-05-26T01:05:16.974Z,1011.79
2019-05-26T01:06:16.960Z,1011.87
2019-05-26T01:07:16.989Z,1011.81
2019-05-26T01:08:16.935Z,1011.81
2019-05-26T01:09:16.918Z,1011.80
2019-05-26T01:10:16.913Z,1011.79
2019-05-26T01:11:16.923Z,1011.77
2019-05-26T01:12:16.917Z,1011.74
2019-05-26T01:13:16.883Z,1011.74
2019-05-26T01:14:16.904Z,1011.71
2019-05-26T01:15:16.863Z,1011.76
2019-05-26T01:16:16.854Z,1011.72
2019-05-26T01:17:16.857Z,1011.70
2019-05-26T01:18:16.829Z,1011.70
2019-05-26T01:19:16.823Z,1011.67
2019-05-26T01:20:16.809Z,1011.69
2019-05-26T01:21:16.795Z,1011.75
2019-05-26T01:22:16.925Z,1011.73
2019-05-26T01:23:16.778Z,1011.76
2019-05-26T01:24:16.775Z,1011.76
2019-05-26T01:25:16.763Z,1011.73
2019-05-26T01:26:16.742Z,1011.77
2019-05-26T01:27:16.753Z,1011.82
2019-05-26T01:28:16.723Z,1011.81
2019-05-26T01:29:16.716Z,1011.78
2019-05-26T01:30:16.715Z,1011.77
2019-05-26T01:31:16.708Z,1011.78
2019-05-26T01:32:16.697Z,1011.75
2019-05-26T01:33:16.668Z,1011.74
2019-05-26T01:34:16.661Z,1011.72
2019-05-26T01:35:16.669Z,1011.76
2019-05-26T01:36:16.642Z,1011.74
2019-05-26T01:37:16.649Z,1011.79
2019-05-26T01:38:23.666Z,1011.76
2019-05-26T01:39:17.600Z,1011.80
2019-05-26T01:40:16.598Z,1011.86
2019-05-26T01:41:16.589Z,1011.85
2019-05-26T01:42:16.616Z,1011.87
2019-05-26T01:43:16.593Z,1011.84
2019-05-26T01:44:16.552Z,1011.86
2019-05-26T01:45:16.537Z,1011.82
2019-05-26T01:46:16.553Z,1011.83
2019-05-26T01:47:16.543Z,1011.82
2019-05-26T01:48:16.534Z,1011.82
2019-05-26T01:49:16.494Z,1011.80
2019-05-26T01:50:16.487Z,1011.79
2019-05-26T01:51:16.476Z,1011.80
2019-05-26T01:52:16.481Z,1011.78
2019-05-26T01:53:16.508Z,1011.74
2019-05-26T01:54:16.446Z,1011.77
2019-05-26T01:55:16.433Z,1011.78
2019-05-26T01:56:16.419Z,1011.77
2019-05-26T01:57:16.431Z,1011.76
2019-05-26T01:58:16.398Z,1011.73
2019-05-26T01:59:16.402Z,1011.73
2019-05-26T02:00:16.387Z,1011.77
2019-05-26T02:01:16.367Z,1011.75
2019-05-26T02:02:16.355Z,1011.78
2019-05-26T02:03:16.366Z,1011.77
2019-05-26T02:04:16.346Z,1011.77
2019-05-26T02:05:16.334Z,1011.78
2019-05-26T02:06:16.324Z,1011.82
2019-05-26T02:07:16.300Z,1011.78
2019-05-26T02:08:16.324Z,1011.76
2019-05-26T02:09:16.283Z,1011.80
2019-05-26T02:10:16.285Z,1011.80
2019-05-26T02:11:16.257Z,1011.77
2019-05-26T02:12:16.243Z,1011.72
2019-05-26T02:13:16.253Z,1011.71
2019-05-26T02:14:16.231Z,1011.71
2019-05-26T02:15:16.211Z,1011.73
2019-05-26T02:16:16.208Z,1011.68
2019-05-26T02:17:16.191Z,1011.71
2019-05-26T02:18:16.200Z,1011.66
2019-05-26T02:19:16.175Z,1011.72
2019-05-26T02:20:16.167Z,1011.72
2019-05-26T02:21:16.150Z,1011.70
2019-05-26T02:22:16.153Z,1011.70
2019-05-26T02:23:16.166Z,1011.67
2019-05-26T02:24:16.117Z,1011.69
2019-05-26T02:25:25.225Z,1011.66
2019-05-26T02:26:25.247Z,1011.65
2019-05-26T02:27:16.090Z,1011.65
2019-05-26T02:28:16.090Z,1011.66
2019-05-26T02:29:23.377Z,1011.65
2019-05-26T02:30:16.063Z,1011.64
2019-05-26T02:31:16.062Z,1011.61
2019-05-26T02:32:24.816Z,1011.61
2019-05-26T02:33:16.047Z,1011.61
2019-05-26T02:34:16.014Z,1011.60
2019-05-26T02:35:24.290Z,1011.61
2019-05-26T02:36:15.994Z,1011.60
2019-05-26T02:37:15.984Z,1011.65
2019-05-26T02:38:16.002Z,1011.62
2019-05-26T02:39:15.973Z,1011.65
2019-05-26T02:40:15.998Z,1011.65
2019-05-26T02:41:15.954Z,1011.70
2019-05-26T02:42:15.928Z,1011.74
2019-05-26T02:43:15.956Z,1011.70
2019-05-26T02:44:15.908Z,1011.69
2019-05-26T02:45:15.910Z,1011.67
2019-05-26T02:46:15.883Z,1011.65
2019-05-26T02:47:15.879Z,1011.65
2019-05-26T02:48:15.934Z,1011.67
2019-05-26T02:49:15.856Z,1011.63
2019-05-26T02:50:15.863Z,1011.62
2019-05-26T02:51:15.845Z,1011.62
2019-05-26T02:52:15.836Z,1011.61
2019-05-26T02:53:15.840Z,1011.60
2019-05-26T02:54:15.798Z,1011.64
2019-05-26T02:55:15.793Z,1011.69
2019-05-26T02:56:15.814Z,1011.64
2019-05-26T02:57:15.775Z,1011.63
2019-05-26T02:58:15.799Z,1011.65
2019-05-26T02:59:15.742Z,1011.69
2019-05-26T03:00:15.732Z,1011.67
2019-05-26T03:01:15.731Z,1011.70
2019-05-26T03:02:15.715Z,1011.71
2019-05-26T03:03:15.725Z,1011.66
2019-05-26T03:04:15.758Z,1011.66
2019-05-26T03:05:15.677Z,1011.69
2019-05-26T03:06:15.686Z,1011.66
2019-05-26T03:07:15.660Z,1011.70
2019-05-26T03:08:15.670Z,1011.64
2019-05-26T03:09:22.470Z,1011.64
2019-05-26T03:10:16.642Z,1011.68
2019-05-26T03:11:15.619Z,1011.64
2019-05-26T03:12:15.612Z,1011.66
2019-05-26T03:13:15.627Z,1011.62
2019-05-26T03:14:15.591Z,1011.66
2019-05-26T03:15:15.584Z,1011.62
2019-05-26T03:16:15.560Z,1011.65
2019-05-26T03:17:15.552Z,1011.67
2019-05-26T03:18:15.569Z,1011.72
2019-05-26T03:19:15.532Z,1011.69
2019-05-26T03:20:15.538Z,1011.67
2019-05-26T03:21:15.518Z,1011.69
2019-05-26T03:22:15.497Z,1011.66
2019-05-26T03:23:15.566Z,1011.72
2019-05-26T03:24:15.542Z,1011.68
2019-05-26T03:25:15.476Z,1011.69
2019-05-26T03:26:22.736Z,1011.68
2019-05-26T03:27:15.450Z,1011.62
2019-05-26T03:28:15.469Z,1011.71
2019-05-26T03:29:15.431Z,1011.73
2019-05-26T03:30:15.474Z,1011.64
2019-05-26T03:31:15.411Z,1011.67
2019-05-26T03:32:15.394Z,1011.63
2019-05-26T03:33:15.424Z,1011.65
2019-05-26T03:34:15.442Z,1011.62
2019-05-26T03:35:15.360Z,1011.62
2019-05-26T03:36:15.357Z,1011.64
2019-05-26T03:37:15.362Z,1011.66
2019-05-26T03:38:15.332Z,1011.65
2019-05-26T03:39:15.324Z,1011.66
2019-05-26T03:40:15.299Z,1011.72
2019-05-26T03:41:15.301Z,1011.69
2019-05-26T03:42:15.315Z,1011.70
2019-05-26T03:43:15.312Z,1011.66
2019-05-26T03:44:15.258Z,1011.70
2019-05-26T03:45:15.254Z,1011.71
2019-05-26T03:46:15.246Z,1011.66
2019-05-26T03:47:16.847Z,1011.71
2019-05-26T03:48:15.258Z,1011.66
2019-05-26T03:49:15.211Z,1011.68
2019-05-26T03:50:15.210Z,1011.69
2019-05-26T03:51:15.190Z,1011.73
2019-05-26T03:52:15.189Z,1011.70
2019-05-26T03:53:15.193Z,1011.69
2019-05-26T03:54:15.161Z,1011.71
2019-05-26T03:55:15.151Z,1011.73
2019-05-26T03:56:15.137Z,1011.75
2019-05-26T03:57:15.122Z,1011.79
2019-05-26T03:58:15.149Z,1011.77
2019-05-26T03:59:15.106Z,1011.75
2019-05-26T04:00:15.094Z,1011.81
2019-05-26T04:01:15.114Z,1011.73
2019-05-26T04:02:15.101Z,1011.73
2019-05-26T04:03:15.058Z,1011.73
2019-05-26T04:04:15.095Z,1011.66
2019-05-26T04:05:15.047Z,1011.68
2019-05-26T04:06:15.038Z,1011.66
2019-05-26T04:07:15.027Z,1011.72
2019-05-26T04:08:15.011Z,1011.70
2019-05-26T04:09:15.016Z,1011.70
2019-05-26T04:10:14.983Z,1011.68
2019-05-26T04:11:14.977Z,1011.71
2019-05-26T04:12:14.982Z,1011.67
2019-05-26T04:13:14.965Z,1011.66
2019-05-26T04:14:14.971Z,1011.70
2019-05-26T04:15:14.940Z,1011.60
2019-05-26T04:16:14.915Z,1011.66
2019-05-26T04:17:14.908Z,1011.64
2019-05-26T04:18:14.901Z,1011.63
2019-05-26T04:19:14.907Z,1011.61
2019-05-26T04:20:14.885Z,1011.53
2019-05-26T04:21:14.860Z,1011.57
2019-05-26T04:22:14.856Z,1011.52
2019-05-26T04:23:14.848Z,1011.50
2019-05-26T04:24:14.883Z,1011.46
2019-05-26T04:25:14.829Z,1011.52
2019-05-26T04:26:14.824Z,1011.49
2019-05-26T04:27:14.807Z,1011.47
2019-05-26T04:28:14.798Z,1011.45
2019-05-26T04:29:14.912Z,1011.48
2019-05-26T04:30:14.770Z,1011.48
2019-05-26T04:31:14.780Z,1011.43
2019-05-26T04:32:14.747Z,1011.46
2019-05-26T04:33:14.733Z,1011.45
2019-05-26T04:34:14.797Z,1011.46
2019-05-26T04:35:14.717Z,1011.48
2019-05-26T04:36:14.708Z,1011.45
2019-05-26T04:37:14.700Z,1011.47
2019-05-26T04:38:14.704Z,1011.44
2019-05-26T04:39:14.688Z,1011.46
2019-05-26T04:40:26.716Z,1011.48
2019-05-26T04:41:15.658Z,1011.45
2019-05-26T04:42:14.642Z,1011.51
2019-05-26T04:43:15.295Z,1011.54
2019-05-26T04:44:14.667Z,1011.49
2019-05-26T04:45:14.622Z,1011.48
2019-05-26T04:46:14.620Z,1011.50
2019-05-26T04:47:14.595Z,1011.54
2019-05-26T04:48:14.588Z,1011.54
2019-05-26T04:49:14.594Z,1011.54
2019-05-26T04:50:14.562Z,1011.54
2019-05-26T04:51:14.555Z,1011.50
2019-05-26T04:52:14.533Z,1011.49
2019-05-26T04:53:14.529Z,1011.46
2019-05-26T04:54:14.546Z,1011.49
2019-05-26T04:55:14.506Z,1011.50
2019-05-26T04:56:14.498Z,1011.55
2019-05-26T04:57:14.497Z,1011.48
2019-05-26T04:58:14.470Z,1011.50
2019-05-26T04:59:14.479Z,1011.48
2019-05-26T05:00:14.527Z,1011.43
2019-05-26T05:01:14.453Z,1011.45
2019-05-26T05:02:14.426Z,1011.41
2019-05-26T05:03:14.529Z,1011.45
2019-05-26T05:04:14.422Z,1011.46
2019-05-26T05:05:14.398Z,1011.42
2019-05-26T05:06:14.394Z,1011.44
2019-05-26T05:07:14.378Z,1011.42
2019-05-26T05:08:14.364Z,1011.40
2019-05-26T05:09:14.378Z,1011.45
2019-05-26T05:10:14.361Z,1011.48
2019-05-26T05:11:14.331Z,1011.40
2019-05-26T05:12:14.329Z,1011.38
2019-05-26T05:13:14.317Z,1011.41
2019-05-26T05:14:14.319Z,1011.40
2019-05-26T05:15:14.301Z,1011.43
2019-05-26T05:16:14.287Z,1011.41
2019-05-26T05:17:14.277Z,1011.41
2019-05-26T05:18:14.272Z,1011.41
2019-05-26T05:19:14.287Z,1011.39
2019-05-26T05:20:14.237Z,1011.37
2019-05-26T05:21:14.226Z,1011.37
2019-05-26T05:22:14.210Z,1011.41
2019-05-26T05:23:14.207Z,1011.39
2019-05-26T05:24:14.218Z,1011.35
2019-05-26T05:25:15.370Z,1011.31
2019-05-26T05:26:14.180Z,1011.30
2019-05-26T05:27:14.172Z,1011.29
2019-05-26T05:28:14.147Z,1011.26
2019-05-26T05:29:14.155Z,1011.30
2019-05-26T05:30:14.124Z,1011.25
2019-05-26T05:31:14.117Z,1011.25
2019-05-26T05:32:14.112Z,1011.29
2019-05-26T05:33:14.100Z,1011.30
2019-05-26T05:34:14.189Z,1011.29
2019-05-26T05:35:14.077Z,1011.25
2019-05-26T05:36:14.065Z,1011.27
2019-05-26T05:37:14.066Z,1011.27
2019-05-26T05:38:14.054Z,1011.24
2019-05-26T05:39:14.063Z,1011.22
2019-05-26T05:40:14.018Z,1011.24
2019-05-26T05:41:14.026Z,1011.20
2019-05-26T05:42:13.997Z,1011.24
2019-05-26T05:43:13.990Z,1011.21
2019-05-26T05:44:14.010Z,1011.21
2019-05-26T05:45:13.968Z,1011.18
2019-05-26T05:46:13.957Z,1011.16
2019-05-26T05:47:13.970Z,1011.16
2019-05-26T05:48:13.932Z,1011.15
2019-05-26T05:49:13.964Z,1011.18
2019-05-26T05:50:13.908Z,1011.18
2019-05-26T05:51:13.902Z,1011.17
2019-05-26T05:52:13.904Z,1011.18
2019-05-26T05:53:13.885Z,1011.12
2019-05-26T05:54:13.913Z,1011.15
2019-05-26T05:55:13.868Z,1011.17
2019-05-26T05:56:13.847Z,1011.18
2019-05-26T05:57:13.842Z,1011.13
2019-05-26T05:58:13.841Z,1011.14
2019-05-26T05:59:13.870Z,1011.14
2019-05-26T06:00:13.812Z,1011.10
2019-05-26T06:01:13.798Z,1011.12
2019-05-26T06:02:13.784Z,1011.06
2019-05-26T06:03:13.772Z,1011.13
2019-05-26T06:04:13.787Z,1011.05
2019-05-26T06:05:13.752Z,1011.12
2019-05-26T06:06:13.742Z,1011.13
2019-05-26T06:07:13.736Z,1011.08
2019-05-26T06:08:13.721Z,1011.05
2019-05-26T06:09:13.750Z,1011.06
2019-05-26T06:10:13.712Z,1011.06
2019-05-26T06:11:16.813Z,1011.06
2019-05-26T06:12:13.679Z,1011.05
2019-05-26T06:13:13.664Z,1011.08
2019-05-26T06:14:13.696Z,1011.01
2019-05-26T06:15:15.649Z,1011.00
2019-05-26T06:16:13.634Z,1011.02
2019-05-26T06:17:13.629Z,1011.03
2019-05-26T06:18:13.624Z,1010.99
2019-05-26T06:19:13.630Z,1011.01
2019-05-26T06:20:13.593Z,1011.06
2019-05-26T06:21:13.580Z,1011.00
2019-05-26T06:22:13.572Z,1010.98
2019-05-26T06:23:13.561Z,1010.98
2019-05-26T06:24:13.581Z,1010.94
2019-05-26T06:25:13.536Z,1010.91
2019-05-26T06:26:13.524Z,1010.91
2019-05-26T06:27:13.526Z,1010.91
2019-05-26T06:28:13.505Z,1010.92
2019-05-26T06:29:13.540Z,1010.91
2019-05-26T06:30:13.480Z,1010.90
2019-05-26T06:31:13.474Z,1010.90
2019-05-26T06:32:13.673Z,1010.93
2019-05-26T06:33:13.450Z,1010.89
2019-05-26T06:34:13.469Z,1010.90
2019-05-26T06:35:13.444Z,1010.90
2019-05-26T06:36:13.437Z,1010.94
2019-05-26T06:37:13.420Z,1010.92
2019-05-26T06:38:13.394Z,1010.87
2019-05-26T06:39:13.416Z,1010.92
2019-05-26T06:40:13.382Z,1010.88
2019-05-26T06:41:13.372Z,1010.88
2019-05-26T06:42:13.420Z,1010.89
2019-05-26T06:43:13.340Z,1010.86
2019-05-26T06:44:13.353Z,1010.92
2019-05-26T06:45:13.327Z,1010.84
2019-05-26T06:46:13.310Z,1010.92
2019-05-26T06:47:13.299Z,1010.89
2019-05-26T06:48:13.291Z,1010.89
2019-05-26T06:49:13.298Z,1010.90
2019-05-26T06:50:13.268Z,1010.97
2019-05-26T06:51:13.274Z,1010.93
2019-05-26T06:52:13.258Z,1010.90
2019-05-26T06:53:13.231Z,1010.97
2019-05-26T06:54:13.261Z,1010.92
2019-05-26T06:55:13.216Z,1010.92
2019-05-26T06:56:13.314Z,1010.96
2019-05-26T06:57:13.198Z,1010.93
2019-05-26T06:58:13.186Z,1010.93
2019-05-26T06:59:13.169Z,1010.92
2019-05-26T07:00:13.187Z,1010.93
2019-05-26T07:01:13.150Z,1010.90
2019-05-26T07:02:13.144Z,1010.96
2019-05-26T07:03:13.144Z,1010.95
2019-05-26T07:04:13.112Z,1010.86
2019-05-26T07:05:13.139Z,1010.90
2019-05-26T07:06:13.096Z,1010.84
2019-05-26T07:07:13.086Z,1010.84
2019-05-26T07:08:13.125Z,1010.85
2019-05-26T07:09:13.082Z,1010.82
2019-05-26T07:10:13.084Z,1010.79
2019-05-26T07:11:13.051Z,1010.81
2019-05-26T07:12:13.028Z,1010.83
2019-05-26T07:13:13.031Z,1010.77
2019-05-26T07:14:13.016Z,1010.73
2019-05-26T07:15:13.025Z,1010.68
2019-05-26T07:16:12.984Z,1010.70
2019-05-26T07:17:12.972Z,1010.69
2019-05-26T07:18:12.964Z,1010.72
2019-05-26T07:19:12.968Z,1010.64
2019-05-26T07:20:12.968Z,1010.70
2019-05-26T07:21:12.942Z,1010.64
2019-05-26T07:22:12.922Z,1010.62
2019-05-26T07:23:13.171Z,1010.71
2019-05-26T07:24:12.902Z,1010.60
2019-05-26T07:25:12.925Z,1010.61
2019-05-26T07:26:12.890Z,1010.72
2019-05-26T07:27:12.869Z,1010.65
2019-05-26T07:28:12.859Z,1010.66
2019-05-26T07:29:12.848Z,1010.58
2019-05-26T07:30:12.866Z,1010.66
2019-05-26T07:31:12.827Z,1010.66
2019-05-26T07:32:12.818Z,1010.64
2019-05-26T07:33:12.803Z,1010.64
2019-05-26T07:34:12.793Z,1010.58
2019-05-26T07:35:12.820Z,1010.63
2019-05-26T07:36:12.793Z,1010.61
2019-05-26T07:37:12.770Z,1010.58
2019-05-26T07:38:12.788Z,1010.65
2019-05-26T07:39:12.747Z,1010.57
2019-05-26T07:40:12.743Z,1010.57
2019-05-26T07:41:12.731Z,1010.60
2019-05-26T07:42:12.712Z,1010.60
2019-05-26T07:43:12.698Z,1010.58
2019-05-26T07:44:12.715Z,1010.60
2019-05-26T07:45:12.804Z,1010.56
2019-05-26T07:46:12.772Z,1010.60
2019-05-26T07:47:12.690Z,1010.62
2019-05-26T07:48:12.655Z,1010.59
2019-05-26T07:49:12.643Z,1010.60
2019-05-26T07:50:12.705Z,1010.62
2019-05-26T07:51:12.618Z,1010.62
2019-05-26T07:52:12.655Z,1010.62
2019-05-26T07:53:12.600Z,1010.57
2019-05-26T07:54:25.285Z,1010.58
2019-05-26T07:55:13.590Z,1010.62
2019-05-26T07:56:12.559Z,1010.58
2019-05-26T07:57:12.583Z,1010.63
2019-05-26T07:58:12.542Z,1010.64
2019-05-26T07:59:12.551Z,1010.60
2019-05-26T08:00:12.558Z,1010.57
2019-05-26T08:01:12.539Z,1010.59
2019-05-26T08:02:12.543Z,1010.52
2019-05-26T08:03:12.523Z,1010.56
2019-05-26T08:04:12.475Z,1010.59
2019-05-26T08:05:12.579Z,1010.64
2019-05-26T08:06:12.455Z,1010.62
2019-05-26T08:07:12.449Z,1010.63
2019-05-26T08:08:13.605Z,1010.66
2019-05-26T08:09:12.422Z,1010.61
2019-05-26T08:10:12.428Z,1010.55
2019-05-26T08:11:12.410Z,1010.61
2019-05-26T08:12:25.104Z,1010.55
2019-05-26T08:13:13.376Z,1010.51
2019-05-26T08:14:12.371Z,1010.54
2019-05-26T08:15:12.389Z,1010.55
2019-05-26T08:16:12.355Z,1010.55
2019-05-26T08:17:12.338Z,1010.56
2019-05-26T08:18:12.371Z,1010.54
2019-05-26T08:19:12.328Z,1010.54
2019-05-26T08:20:12.369Z,1010.52
2019-05-26T08:21:12.425Z,1010.50
2019-05-26T08:22:12.289Z,1010.50
2019-05-26T08:23:12.275Z,1010.47
2019-05-26T08:24:12.322Z,1010.46
2019-05-26T08:25:12.246Z,1010.37
2019-05-26T08:26:12.318Z,1010.36
2019-05-26T08:27:12.244Z,1010.40
2019-05-26T08:28:12.255Z,1010.39
2019-05-26T08:29:12.226Z,1010.38
2019-05-26T08:30:12.217Z,1010.33
2019-05-26T08:31:13.461Z,1010.30
2019-05-26T08:32:14.913Z,1010.30
2019-05-26T08:33:12.236Z,1010.26
2019-05-26T08:34:12.153Z,1010.28
2019-05-26T08:35:12.181Z,1010.26
2019-05-26T08:36:12.157Z,1010.23
2019-05-26T08:37:12.135Z,1010.19
2019-05-26T08:38:12.115Z,1010.14
2019-05-26T08:39:12.102Z,1010.16
2019-05-26T08:40:12.149Z,1010.10
2019-05-26T08:41:12.111Z,1010.10
2019-05-26T08:42:26.224Z,1010.03
2019-05-26T08:43:13.060Z,1010.05
2019-05-26T08:44:12.042Z,1010.13
2019-05-26T08:45:12.051Z,1010.06
2019-05-26T08:46:12.033Z,1010.04
2019-05-26T08:47:12.017Z,1010.01
2019-05-26T08:48:12.025Z,1010.01
2019-05-26T08:49:11.988Z,1010.01
2019-05-26T08:50:12.022Z,1010.02
2019-05-26T08:51:11.979Z,1009.98
2019-05-26T08:52:11.966Z,1009.94
2019-05-26T08:53:11.944Z,1009.93
2019-05-26T08:54:11.937Z,1009.96
2019-05-26T08:55:11.939Z,1009.92
2019-05-26T08:56:11.932Z,1009.89
2019-05-26T08:57:11.900Z,1009.96
2019-05-26T08:58:11.919Z,1009.95
2019-05-26T08:59:11.880Z,1009.90
2019-05-26T09:00:11.917Z,1009.90
2019-05-26T09:01:11.862Z,1009.86
2019-05-26T09:02:11.864Z,1009.89
2019-05-26T09:03:11.838Z,1009.78
2019-05-26T09:04:11.829Z,1009.80
2019-05-26T09:05:11.838Z,1009.82
2019-05-26T09:06:11.818Z,1009.75
2019-05-26T09:07:11.794Z,1009.69
2019-05-26T09:08:11.782Z,1009.69
2019-05-26T09:09:11.787Z,1009.72
2019-05-26T09:10:11.790Z,1009.76
2019-05-26T09:11:11.760Z,1009.71
2019-05-26T09:12:11.756Z,1009.75
2019-05-26T09:13:11.733Z,1009.81
2019-05-26T09:14:11.726Z,1009.81
2019-05-26T09:15:11.720Z,1009.72
2019-05-26T09:16:11.723Z,1009.69
2019-05-26T09:17:11.706Z,1009.69
2019-05-26T09:18:11.681Z,1009.63
2019-05-26T09:19:11.775Z,1009.56
2019-05-26T09:20:12.167Z,1009.59
2019-05-26T09:21:11.663Z,1009.57
2019-05-26T09:22:11.631Z,1009.53
2019-05-26T09:23:11.633Z,1009.60
2019-05-26T09:24:11.609Z,1009.63
2019-05-26T09:25:11.617Z,1009.58
2019-05-26T09:26:11.611Z,1009.58
2019-05-26T09:27:11.585Z,1009.59
2019-05-26T09:28:11.568Z,1009.57
2019-05-26T09:29:11.559Z,1009.49
2019-05-26T09:30:11.549Z,1009.52
2019-05-26T09:31:11.645Z,1009.59
2019-05-26T09:32:11.536Z,1009.61
2019-05-26T09:33:11.528Z,1009.52
2019-05-26T09:34:11.581Z,1009.52
2019-05-26T09:35:11.495Z,1009.52
2019-05-26T09:36:11.601Z,1009.55
2019-05-26T09:37:11.477Z,1009.56
2019-05-26T09:38:11.470Z,1009.51
2019-05-26T09:39:11.457Z,1009.50
2019-05-26T09:40:11.447Z,1009.47
2019-05-26T09:41:11.452Z,1009.66
2019-05-26T09:42:11.424Z,1009.49
2019-05-26T09:43:16.161Z,1009.48
2019-05-26T09:44:12.395Z,1009.53
2019-05-26T09:45:11.387Z,1009.43
2019-05-26T09:46:11.393Z,1009.51
2019-05-26T09:47:11.367Z,1009.44
2019-05-26T09:48:11.357Z,1009.43
2019-05-26T09:49:11.349Z,1009.45
2019-05-26T09:50:11.349Z,1009.42
2019-05-26T09:51:11.369Z,1009.39
2019-05-26T09:52:11.324Z,1009.43
2019-05-26T09:53:11.302Z,1009.42
2019-05-26T09:54:12.698Z,1009.39
2019-05-26T09:55:11.281Z,1009.39
2019-05-26T09:56:11.302Z,1009.36
2019-05-26T09:57:11.265Z,1009.36
2019-05-26T09:58:11.272Z,1009.29
2019-05-26T09:59:11.242Z,1009.30
2019-05-26T10:00:11.253Z,1009.24
2019-05-26T10:01:11.253Z,1009.25
2019-05-26T10:02:11.217Z,1009.32
2019-05-26T10:03:11.198Z,1009.28
2019-05-26T10:04:11.184Z,1009.27
2019-05-26T10:05:11.184Z,1009.24
2019-05-26T10:06:11.199Z,1009.23
2019-05-26T10:07:15.668Z,1009.21
2019-05-26T10:08:11.140Z,1009.22
2019-05-26T10:09:11.134Z,1009.15
2019-05-26T10:10:11.128Z,1009.27
2019-05-26T10:11:11.129Z,1009.13
2019-05-26T10:12:11.101Z,1009.21
2019-05-26T10:13:11.104Z,1009.18
2019-05-26T10:14:11.076Z,1009.23
2019-05-26T10:15:11.072Z,1009.15
2019-05-26T10:16:11.093Z,1009.11
2019-05-26T10:17:11.073Z,1009.18
2019-05-26T10:18:11.046Z,1009.14
2019-05-26T10:19:11.074Z,1009.10
2019-05-26T10:20:11.021Z,1009.14
2019-05-26T10:21:11.023Z,1009.18
2019-05-26T10:22:10.994Z,1009.10
2019-05-26T10:23:11.003Z,1009.17
2019-05-26T10:24:10.973Z,1009.17
2019-05-26T10:25:10.972Z,1009.20
2019-05-26T10:26:10.994Z,1009.19
2019-05-26T10:27:10.955Z,1009.12
2019-05-26T10:28:10.963Z,1009.06
2019-05-26T10:29:10.929Z,1009.13
2019-05-26T10:30:10.921Z,1009.17
2019-05-26T10:31:10.928Z,1009.10
2019-05-26T10:32:10.896Z,1009.07
2019-05-26T10:33:10.897Z,1009.15
2019-05-26T10:34:13.680Z,1009.14
2019-05-26T10:35:10.868Z,1009.14
2019-05-26T10:36:10.871Z,1009.20
2019-05-26T10:37:10.853Z,1009.08
2019-05-26T10:38:10.821Z,1009.13
2019-05-26T10:39:10.831Z,1009.16
2019-05-26T10:40:10.810Z,1009.10
2019-05-26T10:41:10.935Z,1009.06
2019-05-26T10:42:10.789Z,1009.03
2019-05-26T10:43:10.788Z,1009.04
2019-05-26T10:44:10.759Z,1009.07
2019-05-26T10:45:10.750Z,1009.00
2019-05-26T10:46:10.783Z,1008.97
2019-05-26T10:47:10.728Z,1008.96
2019-05-26T10:48:10.727Z,1008.94
2019-05-26T10:49:10.718Z,1008.89
2019-05-26T10:50:10.709Z,1008.97
2019-05-26T10:51:10.706Z,1008.88
2019-05-26T10:52:11.520Z,1008.92
2019-05-26T10:53:10.667Z,1008.85
2019-05-26T10:54:10.672Z,1008.80
2019-05-26T10:55:10.645Z,1008.82
2019-05-26T10:56:10.660Z,1008.87
2019-05-26T10:57:10.627Z,1008.85
2019-05-26T10:58:10.620Z,1008.83
2019-05-26T10:59:10.637Z,1008.80
2019-05-26T11:00:10.599Z,1008.89
2019-05-26T11:01:10.625Z,1008.91
2019-05-26T11:02:10.578Z,1008.81
2019-05-26T11:03:10.571Z,1008.79
2019-05-26T11:04:10.707Z,1008.81
2019-05-26T11:05:10.551Z,1008.81
2019-05-26T11:06:10.585Z,1008.78
2019-05-26T11:07:10.519Z,1008.77
2019-05-26T11:08:10.503Z,1008.81
2019-05-26T11:09:10.505Z,1008.82
2019-05-26T11:10:10.490Z,1008.78
2019-05-26T11:11:10.497Z,1008.93
2019-05-26T11:12:10.474Z,1008.76
2019-05-26T11:13:10.456Z,1008.70
2019-05-26T11:14:10.446Z,1008.77
2019-05-26T11:15:10.451Z,1008.64
2019-05-26T11:16:10.473Z,1008.67
2019-05-26T11:17:10.418Z,1008.65
2019-05-26T11:18:10.403Z,1008.64
2019-05-26T11:19:10.397Z,1008.58
2019-05-26T11:20:10.432Z,1008.53
2019-05-26T11:21:12.403Z,1008.65
2019-05-26T11:22:10.364Z,1008.56
2019-05-26T11:23:10.379Z,1008.58
2019-05-26T11:24:10.349Z,1008.67
2019-05-26T11:25:10.354Z,1008.66
2019-05-26T11:26:10.354Z,1008.58
2019-05-26T11:27:12.590Z,1008.68
2019-05-26T11:28:10.303Z,1008.61
2019-05-26T11:29:10.301Z,1008.61
2019-05-26T11:30:10.279Z,1008.55
2019-05-26T11:31:10.280Z,1008.67
2019-05-26T11:32:10.258Z,1008.51
2019-05-26T11:33:10.256Z,1008.70
2019-05-26T11:34:10.276Z,1008.72
2019-05-26T11:35:10.228Z,1008.69
2019-05-26T11:36:10.249Z,1008.76
2019-05-26T11:37:10.198Z,1008.70
2019-05-26T11:38:10.195Z,1008.74
2019-05-26T11:39:10.187Z,1008.67
2019-05-26T11:40:10.175Z,1008.60
2019-05-26T11:41:10.182Z,1008.69
2019-05-26T11:42:13.418Z,1008.71
2019-05-26T11:43:16.740Z,1008.76
2019-05-26T11:44:17.911Z,1008.63
2019-05-26T11:45:11.135Z,1008.58
2019-05-26T11:46:10.183Z,1008.52
2019-05-26T11:47:10.120Z,1008.57
2019-05-26T11:48:10.096Z,1008.48
2019-05-26T11:49:10.094Z,1008.47
2019-05-26T11:50:10.078Z,1008.44
2019-05-26T11:51:10.097Z,1008.39
2019-05-26T11:52:10.064Z,1008.34
2019-05-26T11:53:10.059Z,1008.33
2019-05-26T11:54:10.032Z,1008.32
2019-05-26T11:55:10.026Z,1008.36
2019-05-26T11:56:10.027Z,1008.30
2019-05-26T11:57:09.998Z,1008.27
2019-05-26T11:58:09.994Z,1008.21
2019-05-26T11:59:10.000Z,1008.25
2019-05-26T12:00:10.841Z,1008.21
2019-05-26T12:01:10.014Z,1008.19
2019-05-26T12:02:09.975Z,1008.19
2019-05-26T12:03:09.939Z,1008.16
2019-05-26T12:04:09.940Z,1008.20
2019-05-26T12:05:09.927Z,1008.15